Time;durP1;ratioP1;P1;durP2;ratioP2;P2;SDS_P1;SDS_P2;PMS_P1;PMS_P2;Temp;Humidity;BMP_temperature;BMP_pressure;BME280_temperature;BME280_humidity;BME280_pressure;Samples;Min_cycle;Max_cycle;Signal;HPM_P1;HPM_P2
2022/03/21 20:46:34;;;;;;;24.40;13.80;;;10.00;99.90;;;;;;5073642;27;81900;-74
2022/03/21 20:49:01;;;;;;;18.83;13.03;;;10.00;99.90;;;;;;5045806;28;20608;-72
2022/03/21 20:53:22;;;;;;;20.70;14.20;;;10.00;99.90;;;;;;5097458;27;20652;-72
2022/03/21 20:57:38;;;;;;;19.40;14.00;;;9.90;99.90;;;;;;5039081;28;20604;-72
2022/03/21 21:00:23;;;;;;;24.10;13.93;;;10.00;99.90;;;;;;5055659;28;20287;-73
2022/03/21 21:03:07;;;;;;;21.60;14.20;;;10.00;99.90;;;;;;5059109;28;20201;-72
2022/03/21 21:05:51;;;;;;;20.90;14.10;;;9.90;99.90;;;;;;5055826;28;20261;-71
2022/03/21 21:08:35;;;;;;;23.37;13.47;;;9.90;99.90;;;;;;5054499;28;20185;-71
2022/03/21 21:12:49;;;;;;;21.70;14.27;;;9.90;99.90;;;;;;5098659;27;20598;-72
2022/03/21 21:15:33;;;;;;;21.17;13.43;;;9.90;99.90;;;;;;5058836;28;175992;-72
2022/03/21 21:18:26;;;;;;;23.43;14.00;;;9.90;99.90;;;;;;5119802;27;20608;-72
2022/03/21 21:23:14;;;;;;;20.40;13.80;;;9.90;99.90;;;;;;5068494;27;20732;-72
2022/03/21 21:25:58;;;;;;;20.27;13.20;;;9.80;99.90;;;;;;5063438;28;20256;-72
2022/03/21 21:28:42;;;;;;;24.67;14.33;;;9.80;99.90;;;;;;5062965;28;20229;-72
2022/03/21 21:31:31;;;;;;;18.07;13.20;;;9.80;99.90;;;;;;5041595;28;20209;-72
2022/03/21 21:34:16;;;;;;;21.33;14.27;;;9.70;99.90;;;;;;5042293;28;20199;-72
2022/03/21 21:37:00;;;;;;;19.50;14.00;;;9.70;99.90;;;;;;5041910;28;20220;-72
2022/03/21 21:39:44;;;;;;;18.40;13.03;;;9.70;99.90;;;;;;5046594;28;20217;-72
2022/03/21 21:42:28;;;;;;;20.47;14.23;;;9.60;99.90;;;;;;5051508;28;20226;-72
2022/03/21 21:45:13;;;;;;;18.00;13.47;;;9.60;99.90;;;;;;5044918;28;20202;-72
2022/03/21 21:47:57;;;;;;;19.13;13.30;;;9.60;99.90;;;;;;5042463;28;20191;-72
2022/03/21 21:50:42;;;;;;;20.83;13.30;;;9.50;99.90;;;;;;5041620;28;20214;-72
2022/03/21 21:53:26;;;;;;;19.70;13.33;;;9.50;99.90;;;;;;5043536;28;20346;-72
2022/03/21 21:56:11;;;;;;;18.40;13.40;;;9.50;99.90;;;;;;5043569;28;20287;-72
2022/03/21 21:58:55;;;;;;;18.80;13.20;;;9.50;99.90;;;;;;5045114;28;20223;-72
2022/03/21 22:01:40;;;;;;;18.50;13.63;;;9.50;99.90;;;;;;5042861;28;20215;-72
2022/03/21 22:04:24;;;;;;;21.60;14.67;;;9.50;99.90;;;;;;5049528;28;20186;-72
2022/03/21 22:07:08;;;;;;;19.77;13.70;;;9.40;99.90;;;;;;5044403;28;20263;-72
2022/03/21 22:09:53;;;;;;;18.80;13.53;;;9.40;99.90;;;;;;5044185;28;20210;-72
2022/03/21 22:12:39;;;;;;;21.80;13.40;;;9.30;99.90;;;;;;5040644;28;20191;-72
2022/03/21 22:15:24;;;;;;;22.53;13.73;;;9.30;99.90;;;;;;5057233;28;20244;-72
2022/03/21 22:18:08;;;;;;;18.23;13.20;;;9.20;99.90;;;;;;5045778;28;20191;-72
2022/03/21 22:20:52;;;;;;;22.17;13.47;;;9.20;99.90;;;;;;5041946;28;20240;-72
2022/03/21 22:23:37;;;;;;;22.93;13.83;;;9.20;99.90;;;;;;5044331;28;20188;-72
2022/03/21 22:26:21;;;;;;;27.10;13.80;;;9.20;99.90;;;;;;5050663;28;20263;-72
2022/03/21 22:29:05;;;;;;;20.53;14.33;;;9.10;99.90;;;;;;5048300;28;20294;-73
2022/03/21 22:31:50;;;;;;;19.30;13.30;;;9.10;99.90;;;;;;5041539;28;20237;-72
2022/03/21 22:34:34;;;;;;;20.00;13.47;;;9.00;99.90;;;;;;5039833;28;20178;-72
2022/03/21 22:37:18;;;;;;;17.87;13.23;;;9.00;99.90;;;;;;5031510;28;20220;-72
2022/03/21 22:49:12;;;;;;;21.53;13.20;;;8.90;99.90;;;;;;5028180;28;20221;-72
2022/03/21 22:51:56;;;;;;;19.33;14.10;;;8.80;99.90;;;;;;5033352;28;20292;-72
2022/03/21 22:54:41;;;;;;;19.13;13.93;;;8.80;99.90;;;;;;5033139;28;20702;-72
2022/03/21 22:57:26;;;;;;;19.77;13.27;;;8.80;99.90;;;;;;5038837;28;20272;-72
2022/03/21 23:00:40;;;;;;;18.70;13.17;;;8.80;99.90;;;;;;5030263;28;20219;-71
2022/03/21 23:03:25;;;;;;;18.67;13.03;;;8.80;99.90;;;;;;5034075;28;20269;-72
2022/03/21 23:06:09;;;;;;;19.70;14.20;;;8.80;99.90;;;;;;5033289;28;20212;-72
2022/03/21 23:08:54;;;;;;;20.57;13.50;;;8.70;99.90;;;;;;5034806;28;20268;-71
2022/03/21 23:11:40;;;;;;;21.60;14.73;;;8.70;99.90;;;;;;5030598;28;20233;-71
2022/03/21 23:14:27;;;;;;;20.67;13.00;;;8.70;99.90;;;;;;5033944;28;20220;-71
2022/03/21 23:17:11;;;;;;;20.63;13.47;;;8.60;99.90;;;;;;5033715;28;20187;-72
2022/03/21 23:19:55;;;;;;;17.93;12.77;;;8.70;99.90;;;;;;5027644;28;20639;-72
2022/03/21 23:22:39;;;;;;;18.37;13.30;;;8.60;99.90;;;;;;5028034;28;20269;-72
2022/03/21 23:25:23;;;;;;;24.30;13.27;;;8.60;99.90;;;;;;5031616;28;20203;-73
2022/03/21 23:28:09;;;;;;;20.23;14.10;;;8.50;99.90;;;;;;5036215;28;20189;-72
2022/03/21 23:30:53;;;;;;;18.63;13.37;;;8.50;99.90;;;;;;5026709;28;20222;-72
2022/03/21 23:33:37;;;;;;;21.77;13.83;;;8.50;99.90;;;;;;5024034;28;20809;-72
2022/03/21 23:36:21;;;;;;;22.43;13.70;;;8.50;99.90;;;;;;5032802;28;20662;-72
2022/03/21 23:39:06;;;;;;;19.07;13.30;;;8.40;99.90;;;;;;5031842;28;20234;-72
2022/03/21 23:44:53;;;;;;;22.93;13.00;;;8.40;99.90;;;;;;5032568;28;20210;-72
2022/03/21 23:47:37;;;;;;;22.97;13.53;;;8.40;99.90;;;;;;5032800;28;20665;-72
2022/03/21 23:50:22;;;;;;;19.40;14.20;;;8.30;99.90;;;;;;5032758;28;20286;-72
2022/03/21 23:53:07;;;;;;;19.73;13.73;;;8.30;99.90;;;;;;5029119;28;20195;-72
2022/03/21 23:55:51;;;;;;;19.17;14.03;;;8.30;99.90;;;;;;5030147;28;20308;-72
2022/03/21 23:58:36;;;;;;;18.17;13.37;;;8.30;99.90;;;;;;5027584;28;20230;-72
